createdAt,value
2022-08-22T00:02:35.071Z,22.48
2022-08-22T00:02:46.231Z,23.64
2022-08-22T00:02:57.376Z,21.83
2022-08-22T00:03:06.743Z,21.28
2022-08-22T00:03:16.002Z,22.00
2022-08-22T00:05:10.914Z,21.92
2022-08-22T00:07:51.996Z,22.44
2022-08-22T00:10:25.924Z,21.95
2022-08-22T00:13:34.125Z,22.49
2022-08-22T00:16:20.749Z,22.41
2022-08-22T00:19:04.027Z,22.52
2022-08-22T00:21:53.762Z,22.09
2022-08-22T00:24:26.968Z,22.08
2022-08-22T00:27:02.260Z,22.00
2022-08-22T00:29:35.841Z,22.00
2022-08-22T00:32:42.722Z,22.22
2022-08-22T00:35:31.767Z,22.05
2022-08-22T00:38:06.347Z,22.23
2022-08-22T00:41:01.967Z,22.13
2022-08-22T00:43:51.416Z,22.28
2022-08-22T00:46:37.527Z,22.09
2022-08-22T00:49:31.365Z,22.33
2022-08-22T00:52:16.339Z,22.57
2022-08-22T00:55:08.969Z,22.67
2022-08-22T00:58:12.696Z,22.84
2022-08-22T01:00:52.369Z,22.97
2022-08-22T01:03:44.817Z,22.92
2022-08-22T01:06:27.411Z,23.00
2022-08-22T01:09:16.151Z,22.98
2022-08-22T01:11:46.593Z,23.00
2022-08-22T01:14:34.548Z,23.05
2022-08-22T01:17:24.277Z,23.03
2022-08-22T01:20:07.287Z,22.94
2022-08-22T01:22:47.226Z,22.92
2022-08-22T01:25:58.076Z,22.95
2022-08-22T01:28:45.097Z,23.01
2022-08-22T01:31:41.674Z,22.77
2022-08-22T01:34:37.429Z,22.85
2022-08-22T01:37:17.720Z,22.96
2022-08-22T01:39:57.259Z,22.70
2022-08-22T01:42:24.672Z,23.04
2022-08-22T01:45:13.976Z,23.08
2022-08-22T01:47:55.686Z,22.99
2022-08-22T01:50:37.216Z,22.93
2022-08-22T01:53:25.214Z,22.88
2022-08-22T01:56:05.496Z,22.95
2022-08-22T01:58:36.666Z,23.06
2022-08-22T02:01:33.960Z,23.23
2022-08-22T02:04:28.180Z,23.16
2022-08-22T02:07:04.283Z,23.15
2022-08-22T02:10:00.433Z,22.71
2022-08-22T02:12:46.722Z,22.61
2022-08-22T02:15:39.067Z,22.89
2022-08-22T02:18:06.494Z,22.98
2022-08-22T02:21:03.506Z,23.02
2022-08-22T02:23:56.037Z,22.92
2022-08-22T02:26:47.014Z,23.11
2022-08-22T02:29:19.392Z,22.68
2022-08-22T02:31:53.152Z,23.29
2022-08-22T02:34:29.092Z,23.44
2022-08-22T02:37:10.078Z,23.45
2022-08-22T02:40:02.822Z,23.35
2022-08-22T02:42:41.133Z,23.46
2022-08-22T02:45:20.731Z,23.30
2022-08-22T02:48:02.053Z,23.34
2022-08-22T02:50:37.826Z,23.34
2022-08-22T02:53:14.772Z,23.02
2022-08-22T02:55:54.469Z,23.10
2022-08-22T02:58:43.196Z,23.22
2022-08-22T03:01:35.234Z,23.04
2022-08-22T03:04:24.803Z,22.94
2022-08-22T03:06:58.188Z,22.77
2022-08-22T03:09:30.807Z,23.01
2022-08-22T03:12:10.395Z,22.94
2022-08-22T03:14:45.831Z,22.97
2022-08-22T03:17:19.808Z,22.97
2022-08-22T03:20:06.032Z,23.13
2022-08-22T03:22:54.610Z,23.25
2022-08-22T03:25:31.063Z,23.16
2022-08-22T03:28:12.167Z,23.02
2022-08-22T03:31:01.407Z,23.10
2022-08-22T03:33:31.092Z,23.25
2022-08-22T03:36:13.997Z,23.27
2022-08-22T03:38:52.745Z,23.31
2022-08-22T03:41:29.430Z,23.26
2022-08-22T03:44:39.145Z,23.17
2022-08-22T03:47:28.923Z,22.95
2022-08-22T03:50:22.252Z,22.70
2022-08-22T03:53:15.452Z,23.07
2022-08-22T03:56:08.785Z,23.15
2022-08-22T03:58:39.625Z,23.23
2022-08-22T04:01:31.569Z,23.17
2022-08-22T04:04:15.997Z,23.28
2022-08-22T04:06:48.320Z,23.17
2022-08-22T04:10:00.532Z,23.29
2022-08-22T04:12:53.512Z,23.37
2022-08-22T04:15:27.256Z,23.35
2022-08-22T04:18:24.521Z,23.40
2022-08-22T04:21:06.160Z,23.49
2022-08-22T04:23:49.919Z,23.47
2022-08-22T04:26:22.886Z,23.47
2022-08-22T04:28:54.040Z,23.53
2022-08-22T04:31:27.849Z,23.55
2022-08-22T04:34:07.167Z,23.61
2022-08-22T04:36:43.916Z,23.62
2022-08-22T04:39:30.157Z,23.57
2022-08-22T04:42:36.685Z,23.45
2022-08-22T04:45:17.109Z,23.68
2022-08-22T04:48:15.901Z,23.73
2022-08-22T04:50:57.836Z,23.76
2022-08-22T04:53:56.256Z,23.65
2022-08-22T04:56:43.338Z,23.70
2022-08-22T04:59:16.461Z,23.83
2022-08-22T05:02:06.396Z,23.62
2022-08-22T05:04:50.831Z,23.58
2022-08-22T05:07:22.998Z,23.66
2022-08-22T05:09:54.417Z,23.76
2022-08-22T05:12:34.454Z,23.83
2022-08-22T05:15:23.166Z,23.85
2022-08-22T05:17:53.808Z,23.82
2022-08-22T05:20:24.572Z,23.93
2022-08-22T05:22:57.553Z,23.91
2022-08-22T05:25:31.091Z,23.83
2022-08-22T05:28:12.411Z,23.82
2022-08-22T05:30:41.042Z,24.04
2022-08-22T05:33:20.460Z,24.02
2022-08-22T05:35:57.925Z,23.77
2022-08-22T05:38:31.461Z,23.94
2022-08-22T05:41:10.637Z,24.02
2022-08-22T05:43:41.841Z,24.02
2022-08-22T05:46:36.700Z,23.85
2022-08-22T05:49:06.153Z,24.15
2022-08-22T05:51:48.297Z,24.08
2022-08-22T05:54:20.299Z,23.81
2022-08-22T05:56:54.146Z,23.66
2022-08-22T05:59:30.284Z,23.86
2022-08-22T06:02:07.968Z,24.08
2022-08-22T06:04:46.529Z,24.17
2022-08-22T06:07:21.995Z,23.99
2022-08-22T06:10:19.992Z,24.18
2022-08-22T06:13:04.579Z,24.09
2022-08-22T06:15:48.174Z,24.17
2022-08-22T06:18:24.202Z,24.35
2022-08-22T06:21:02.016Z,24.50
2022-08-22T06:24:05.257Z,24.41
2022-08-22T06:26:38.157Z,24.36
2022-08-22T06:29:07.414Z,24.37
2022-08-22T06:31:45.247Z,24.39
2022-08-22T06:34:15.941Z,24.40
2022-08-22T06:36:47.725Z,24.48
2022-08-22T06:39:32.242Z,24.56
2022-08-22T06:42:14.517Z,24.49
2022-08-22T06:45:11.574Z,24.43
2022-08-22T06:47:43.480Z,24.48
2022-08-22T06:50:36.224Z,24.78
2022-08-22T06:53:09.863Z,24.87
2022-08-22T06:55:39.594Z,24.80
2022-08-22T06:58:17.710Z,24.81
2022-08-22T07:01:05.679Z,24.95
2022-08-22T07:03:41.268Z,25.06
2022-08-22T07:06:14.223Z,25.13
2022-08-22T07:08:42.330Z,25.23
2022-08-22T07:11:21.817Z,25.33
2022-08-22T07:14:17.051Z,25.46
2022-08-22T07:17:00.801Z,25.53
2022-08-22T07:19:30.446Z,25.54
2022-08-22T07:21:59.635Z,25.46
2022-08-22T07:24:31.929Z,25.55
2022-08-22T07:27:23.961Z,25.60
2022-08-22T07:30:13.945Z,25.51
2022-08-22T07:32:50.739Z,25.66
2022-08-22T07:35:26.748Z,25.11
2022-08-22T07:38:07.915Z,24.95
2022-08-22T07:40:59.740Z,25.11
2022-08-22T07:43:35.446Z,25.43
2022-08-22T07:46:24.729Z,25.36
2022-08-22T07:49:09.165Z,25.05
2022-08-22T07:51:49.770Z,25.21
2022-08-22T07:54:27.193Z,24.80
2022-08-22T07:57:03.680Z,24.93
2022-08-22T07:59:34.457Z,25.06
2022-08-22T08:02:06.186Z,25.04
2022-08-22T08:04:39.994Z,25.00
2022-08-22T08:07:10.746Z,24.77
2022-08-22T08:09:44.674Z,24.90
2022-08-22T08:12:12.976Z,25.00
2022-08-22T08:14:42.590Z,24.88
2022-08-22T08:17:17.575Z,24.93
2022-08-22T08:19:47.304Z,24.51
2022-08-22T08:22:21.306Z,24.90
2022-08-22T08:24:50.177Z,25.00
2022-08-22T08:27:40.211Z,24.83
2022-08-22T08:30:15.467Z,25.31
2022-08-22T08:32:47.786Z,25.25
2022-08-22T08:35:31.669Z,25.70
2022-08-22T08:38:16.778Z,25.61
2022-08-22T08:41:10.917Z,25.55
2022-08-22T08:43:40.914Z,25.18
2022-08-22T08:46:55.784Z,25.36
2022-08-22T08:49:33.655Z,25.63
2022-08-22T08:52:25.773Z,25.54
2022-08-22T08:55:22.550Z,25.26
2022-08-22T08:58:24.124Z,25.34
2022-08-22T09:01:00.278Z,25.55
2022-08-22T09:04:15.184Z,25.48
2022-08-22T09:07:10.788Z,24.94
2022-08-22T09:09:52.273Z,25.15
2022-08-22T09:12:36.977Z,25.58
2022-08-22T09:15:44.875Z,25.62
2022-08-22T09:18:33.839Z,25.53
2022-08-22T09:21:43.709Z,25.28
2022-08-22T09:24:37.414Z,25.88
2022-08-22T09:27:24.405Z,25.61
2022-08-22T09:30:04.705Z,25.93
2022-08-22T09:33:09.999Z,25.67
2022-08-22T09:36:16.179Z,25.77
2022-08-22T09:38:55.976Z,25.66
2022-08-22T09:41:37.824Z,25.82
2022-08-22T09:44:16.338Z,25.89
2022-08-22T09:47:24.496Z,25.58
2022-08-22T09:50:14.748Z,25.92
2022-08-22T09:53:10.203Z,25.94
2022-08-22T09:55:54.860Z,25.88
2022-08-22T09:58:46.368Z,25.79
2022-08-22T10:01:35.791Z,26.08
2022-08-22T10:04:42.477Z,26.08
2022-08-22T10:07:33.551Z,25.61
2022-08-22T10:10:26.550Z,25.88
2022-08-22T10:13:01.277Z,25.13
2022-08-22T10:15:51.110Z,25.61
2022-08-22T10:18:43.984Z,25.66
2022-08-22T10:22:02.503Z,25.69
2022-08-22T10:24:51.963Z,25.77
2022-08-22T10:27:32.623Z,26.06
2022-08-22T10:30:06.353Z,26.21
2022-08-22T10:32:47.136Z,26.05
2022-08-22T10:35:25.720Z,26.13
2022-08-22T10:38:21.409Z,26.20
2022-08-22T10:41:09.947Z,26.36
2022-08-22T10:44:00.610Z,26.27
2022-08-22T10:46:49.258Z,26.08
2022-08-22T10:49:28.220Z,26.41
2022-08-22T10:52:06.513Z,26.38
2022-08-22T10:55:01.743Z,26.34
2022-08-22T10:58:04.735Z,26.34
2022-08-22T11:00:50.193Z,26.02
2022-08-22T11:03:23.483Z,26.09
2022-08-22T11:06:07.029Z,25.93
2022-08-22T11:08:59.603Z,26.47
2022-08-22T11:11:47.808Z,26.23
2022-08-22T11:14:38.022Z,26.65
2022-08-22T11:17:30.907Z,26.82
2022-08-22T11:20:06.881Z,26.65
2022-08-22T11:22:55.527Z,26.12
2022-08-22T11:25:41.538Z,26.43
2022-08-22T11:28:29.554Z,26.63
2022-08-22T11:31:07.555Z,26.77
2022-08-22T11:33:53.138Z,26.41
2022-08-22T11:36:20.502Z,26.63
2022-08-22T11:39:03.364Z,26.88
2022-08-22T11:41:52.245Z,27.07
2022-08-22T11:44:25.490Z,26.61
2022-08-22T11:46:53.344Z,26.92
2022-08-22T11:49:27.342Z,27.20
2022-08-22T11:51:55.499Z,27.28
2022-08-22T11:54:31.155Z,27.09
2022-08-22T11:57:08.937Z,27.31
2022-08-22T11:59:43.231Z,27.17
2022-08-22T12:02:14.142Z,27.08
2022-08-22T12:04:44.011Z,27.50
2022-08-22T12:07:18.592Z,27.69
2022-08-22T12:09:50.745Z,27.04
2022-08-22T12:12:18.909Z,27.67
2022-08-22T12:15:04.541Z,27.81
2022-08-22T12:17:55.503Z,27.68
2022-08-22T12:20:32.977Z,27.62
2022-08-22T12:23:19.032Z,26.95
2022-08-22T12:26:05.971Z,27.27
2022-08-22T12:28:56.880Z,27.32
2022-08-22T12:31:24.402Z,27.35
2022-08-22T12:34:18.204Z,27.08
2022-08-22T12:36:57.902Z,27.49
2022-08-22T12:39:41.233Z,27.56
2022-08-22T12:42:14.684Z,27.57
2022-08-22T12:44:47.435Z,27.60
2022-08-22T12:47:18.020Z,27.73
2022-08-22T12:49:57.653Z,27.36
2022-08-22T12:52:44.314Z,27.59
2022-08-22T12:55:17.613Z,26.80
2022-08-22T12:57:54.058Z,26.43
2022-08-22T13:00:26.776Z,25.68
2022-08-22T13:02:54.708Z,24.99
2022-08-22T13:05:23.749Z,24.98
2022-08-22T13:07:55.293Z,25.31
2022-08-22T13:10:33.468Z,25.10
2022-08-22T13:13:01.168Z,24.60
2022-08-22T13:15:45.286Z,24.64
2022-08-22T13:18:30.050Z,24.56
2022-08-22T13:20:59.067Z,24.72
2022-08-22T13:23:27.920Z,24.81
2022-08-22T13:26:01.283Z,24.47
2022-08-22T13:28:29.322Z,23.81
2022-08-22T13:30:57.345Z,23.87
2022-08-22T13:33:31.675Z,23.88
2022-08-22T13:36:01.268Z,23.62
2022-08-22T13:38:28.892Z,23.76
2022-08-22T13:40:56.832Z,23.79
2022-08-22T13:43:26.436Z,24.44
2022-08-22T13:45:55.995Z,25.01
2022-08-22T13:48:28.498Z,24.98
2022-08-22T13:51:04.931Z,25.47
2022-08-22T13:53:49.876Z,25.25
2022-08-22T13:56:30.452Z,25.65
2022-08-22T13:58:58.625Z,26.03
2022-08-22T14:01:28.854Z,26.49
2022-08-22T14:03:59.438Z,26.74
2022-08-22T14:06:35.321Z,26.84
2022-08-22T14:09:12.001Z,26.86
2022-08-22T14:11:51.690Z,26.76
2022-08-22T14:14:23.619Z,26.87
2022-08-22T14:16:54.197Z,26.56
2022-08-22T14:19:53.134Z,26.53
2022-08-22T14:22:32.028Z,26.68
2022-08-22T14:25:07.248Z,26.83
2022-08-22T14:27:34.775Z,26.62
2022-08-22T14:30:05.528Z,26.51
2022-08-22T14:32:43.176Z,25.95
2022-08-22T14:35:21.673Z,26.45
2022-08-22T14:38:17.123Z,26.20
2022-08-22T14:40:45.090Z,25.49
2022-08-22T14:43:33.609Z,25.56
2022-08-22T14:46:06.329Z,25.69
2022-08-22T14:48:39.357Z,25.62
2022-08-22T14:51:13.100Z,25.60
2022-08-22T14:53:40.646Z,25.74
2022-08-22T14:56:08.740Z,26.01
2022-08-22T14:58:49.481Z,25.87
2022-08-22T15:01:18.805Z,25.75
2022-08-22T15:04:21.387Z,25.37
2022-08-22T15:06:59.321Z,25.40
2022-08-22T15:09:34.320Z,25.63
2022-08-22T15:12:04.044Z,25.73
2022-08-22T15:14:35.333Z,25.88
2022-08-22T15:17:08.684Z,25.37
2022-08-22T15:19:41.057Z,25.95
2022-08-22T15:22:11.346Z,25.65
2022-08-22T15:24:46.989Z,26.13
2022-08-22T15:27:17.254Z,25.88
2022-08-22T15:29:49.545Z,25.92
2022-08-22T15:32:20.295Z,26.07
2022-08-22T15:34:52.397Z,25.64
2022-08-22T15:37:20.150Z,25.62
2022-08-22T15:40:07.468Z,25.54
2022-08-22T15:42:44.572Z,25.10
2022-08-22T15:45:41.348Z,24.95
2022-08-22T15:48:10.738Z,24.81
2022-08-22T15:50:39.490Z,24.68
2022-08-22T15:53:19.739Z,24.95
2022-08-22T15:56:05.504Z,25.23
2022-08-22T15:58:37.178Z,25.13
2022-08-22T16:01:14.190Z,25.05
2022-08-22T16:03:53.583Z,25.19
2022-08-22T16:06:42.541Z,25.22
2022-08-22T16:09:26.425Z,25.07
2022-08-22T16:11:53.835Z,24.43
2022-08-22T16:14:22.726Z,24.56
2022-08-22T16:16:50.027Z,23.83
2022-08-22T16:19:21.992Z,23.83
2022-08-22T16:21:53.461Z,24.03
2022-08-22T16:24:21.733Z,24.43
2022-08-22T16:26:49.013Z,24.87
2022-08-22T16:29:29.289Z,24.52
2022-08-22T16:32:01.454Z,24.52
2022-08-22T16:34:40.431Z,24.64
2022-08-22T16:37:21.623Z,24.33
2022-08-22T16:39:58.594Z,24.12
2022-08-22T16:42:27.369Z,24.75
2022-08-22T16:45:05.430Z,24.69
2022-08-22T16:47:36.332Z,24.85
2022-08-22T16:50:18.421Z,24.72
2022-08-22T16:52:52.468Z,24.59
2022-08-22T16:55:29.338Z,24.54
2022-08-22T16:58:06.484Z,24.09
2022-08-22T17:00:43.383Z,24.77
2022-08-22T17:03:22.668Z,24.10
2022-08-22T17:06:08.933Z,24.77
2022-08-22T17:08:39.090Z,24.49
2022-08-22T17:11:12.464Z,24.69
2022-08-22T17:13:51.715Z,24.55
2022-08-22T17:16:25.394Z,23.92
2022-08-22T17:19:09.236Z,24.28
2022-08-22T17:21:50.621Z,24.68
2022-08-22T17:24:32.240Z,24.23
2022-08-22T17:27:23.650Z,24.07
2022-08-22T17:29:52.072Z,24.34
2022-08-22T17:32:26.273Z,23.72
2022-08-22T17:34:59.428Z,24.38
2022-08-22T17:37:39.525Z,24.40
2022-08-22T17:40:07.074Z,24.09
2022-08-22T17:42:47.936Z,24.00
2022-08-22T17:45:33.936Z,23.82
2022-08-22T17:48:01.688Z,24.24
2022-08-22T17:50:35.157Z,24.34
2022-08-22T17:53:07.828Z,23.80
2022-08-22T17:55:53.891Z,24.00
2022-08-22T17:58:37.860Z,23.67
2022-08-22T18:01:16.014Z,23.80
2022-08-22T18:03:46.416Z,24.03
2022-08-22T18:06:31.134Z,24.11
2022-08-22T18:09:14.888Z,23.87
2022-08-22T18:12:02.433Z,24.41
2022-08-22T18:14:32.146Z,24.09
2022-08-22T18:17:00.877Z,23.73
2022-08-22T18:19:41.156Z,24.05
2022-08-22T18:22:11.097Z,24.12
2022-08-22T18:24:56.508Z,24.09
2022-08-22T18:27:34.138Z,23.84
2022-08-22T18:30:08.171Z,24.21
2022-08-22T18:32:35.769Z,23.89
2022-08-22T18:35:07.901Z,24.07
2022-08-22T18:37:38.231Z,24.27
2022-08-22T18:40:07.220Z,23.96
2022-08-22T18:42:49.910Z,23.86
2022-08-22T18:45:44.494Z,22.92
2022-08-22T18:48:20.056Z,23.31
2022-08-22T18:50:47.874Z,23.43
2022-08-22T18:53:47.769Z,23.79
2022-08-22T18:56:21.861Z,24.26
2022-08-22T18:59:05.873Z,24.24
2022-08-22T19:01:42.323Z,23.74
2022-08-22T19:04:24.667Z,23.73
2022-08-22T19:06:52.915Z,23.95
2022-08-22T19:09:32.156Z,24.18
2022-08-22T19:12:02.994Z,24.24
2022-08-22T19:14:49.123Z,24.37
2022-08-22T19:17:36.610Z,24.59
2022-08-22T19:20:25.913Z,24.25
2022-08-22T19:23:16.602Z,24.37
2022-08-22T19:26:02.923Z,24.32
2022-08-22T19:28:35.922Z,24.71
2022-08-22T19:31:22.506Z,24.30
2022-08-22T19:33:51.246Z,23.28
2022-08-22T19:36:29.947Z,23.97
2022-08-22T19:39:00.651Z,24.13
2022-08-22T19:41:50.835Z,23.78
2022-08-22T19:44:19.034Z,23.87
2022-08-22T19:46:47.786Z,23.38
2022-08-22T19:49:21.561Z,23.43
2022-08-22T19:51:58.810Z,23.66
2022-08-22T19:54:26.271Z,23.44
2022-08-22T19:57:03.146Z,22.90
2022-08-22T19:59:37.941Z,23.52
2022-08-22T20:02:09.163Z,23.37
2022-08-22T20:04:42.405Z,23.73
2022-08-22T20:07:25.007Z,23.24
2022-08-22T20:09:56.518Z,23.80
2022-08-22T20:12:29.839Z,23.77
2022-08-22T20:14:57.440Z,23.91
2022-08-22T20:17:24.713Z,23.77
2022-08-22T20:22:56.746Z,23.78
2022-08-22T20:25:42.085Z,23.73
2022-08-22T20:28:23.548Z,23.71
2022-08-22T20:30:50.874Z,23.88
2022-08-22T20:33:26.048Z,23.54
2022-08-22T20:35:55.730Z,23.70
2022-08-22T20:38:24.504Z,23.76
2022-08-22T20:41:14.354Z,24.06
2022-08-22T20:43:51.499Z,23.82
2022-08-22T20:46:38.193Z,23.85
2022-08-22T20:49:13.567Z,23.91
2022-08-22T20:52:10.948Z,23.96
2022-08-22T20:54:40.914Z,23.84
2022-08-22T20:57:18.619Z,24.00
2022-08-22T20:59:53.853Z,24.00
2022-08-22T21:02:23.852Z,23.59
2022-08-22T21:04:53.102Z,23.23
2022-08-22T21:07:24.186Z,23.09
2022-08-22T21:10:22.321Z,23.46
2022-08-22T21:13:09.159Z,23.57
2022-08-22T21:15:41.446Z,23.35
2022-08-22T21:18:09.498Z,23.34
2022-08-22T21:20:38.105Z,22.92
2022-08-22T21:23:19.729Z,23.29
2022-08-22T21:25:49.303Z,23.14
2022-08-22T21:28:26.939Z,23.20
2022-08-22T21:30:54.464Z,23.00
2022-08-22T21:33:24.665Z,23.05
2022-08-22T21:35:56.095Z,23.21
2022-08-22T21:38:23.920Z,23.25
2022-08-22T21:40:51.446Z,22.71
2022-08-22T21:43:29.832Z,22.92
2022-08-22T21:45:57.368Z,22.94
2022-08-22T21:48:33.427Z,23.04
2022-08-22T21:51:19.437Z,22.72
2022-08-22T21:53:46.748Z,23.21
2022-08-22T21:56:15.618Z,22.85
2022-08-22T21:58:43.039Z,22.84
2022-08-22T22:01:24.947Z,23.12
2022-08-22T22:03:54.959Z,23.17
2022-08-22T22:06:22.266Z,23.23
2022-08-22T22:08:49.638Z,23.24
2022-08-22T22:11:17.217Z,23.31
2022-08-22T22:13:44.544Z,23.35
2022-08-22T22:16:12.392Z,23.52
2022-08-22T22:18:40.677Z,23.44
2022-08-22T22:21:08.084Z,22.99
2022-08-22T22:23:35.336Z,22.88
2022-08-22T22:26:04.038Z,23.29
2022-08-22T22:28:33.081Z,23.45
2022-08-22T22:31:00.401Z,23.16
2022-08-22T22:33:29.291Z,23.52
2022-08-22T22:35:57.576Z,23.70
2022-08-22T22:38:24.838Z,23.75
2022-08-22T22:40:52.643Z,23.16
2022-08-22T22:43:20.026Z,23.36
2022-08-22T22:45:47.244Z,23.67
2022-08-22T22:48:17.535Z,23.23
2022-08-22T22:50:52.457Z,23.59
2022-08-22T22:53:21.516Z,23.52
2022-08-22T22:56:01.124Z,23.78
2022-08-22T22:58:29.040Z,23.81
2022-08-22T23:00:57.689Z,23.82
2022-08-22T23:03:26.814Z,23.68
2022-08-22T23:05:54.315Z,23.71
2022-08-22T23:08:21.598Z,23.74
2022-08-22T23:10:48.911Z,23.70
2022-08-22T23:13:16.418Z,23.92
2022-08-22T23:15:43.713Z,23.90
2022-08-22T23:18:10.912Z,23.82
2022-08-22T23:20:38.431Z,23.92
2022-08-22T23:23:05.900Z,23.37
2022-08-22T23:25:33.149Z,23.44
2022-08-22T23:28:00.787Z,23.39
2022-08-22T23:30:28.255Z,23.81
2022-08-22T23:32:56.129Z,23.61
2022-08-22T23:35:23.736Z,23.83
2022-08-22T23:37:51.093Z,23.63
2022-08-22T23:40:18.505Z,23.78
2022-08-22T23:42:46.115Z,23.93
2022-08-22T23:45:13.457Z,23.93
2022-08-22T23:47:40.673Z,23.87
2022-08-22T23:50:08.481Z,23.91
2022-08-22T23:52:35.708Z,23.88
2022-08-22T23:55:03.090Z,23.89
2022-08-22T23:57:30.697Z,23.99
2022-08-22T23:59:58.690Z,23.61
